sensor_id;sensor_type;location;lat;lon;timestamp;P1;durP1;ratioP1;P2;durP2;ratioP2
33006;SDS011;19361;51.598;7.650;2023-07-08T00:00:27;3.05;;;2.42;;
33006;SDS011;19361;51.598;7.650;2023-07-08T00:05:50;5.78;;;2.72;;
33006;SDS011;19361;51.598;7.650;2023-07-08T00:11:16;6.70;;;2.07;;
33006;SDS011;19361;51.598;7.650;2023-07-08T00:16:37;3.22;;;2.22;;
33006;SDS011;19361;51.598;7.650;2023-07-08T00:21:58;2.97;;;2.20;;
33006;SDS011;19361;51.598;7.650;2023-07-08T00:27:21;2.40;;;2.20;;
33006;SDS011;19361;51.598;7.650;2023-07-08T00:32:42;3.08;;;2.30;;
33006;SDS011;19361;51.598;7.650;2023-07-08T00:38:11;3.75;;;2.53;;
33006;SDS011;19361;51.598;7.650;2023-07-08T00:43:37;8.05;;;2.38;;
33006;SDS011;19361;51.598;7.650;2023-07-08T00:49:17;5.75;;;2.40;;
33006;SDS011;19361;51.598;7.650;2023-07-08T00:54:45;2.95;;;2.03;;
33006;SDS011;19361;51.598;7.650;2023-07-08T01:00:10;2.70;;;2.50;;
33006;SDS011;19361;51.598;7.650;2023-07-08T01:05:35;6.15;;;2.42;;
33006;SDS011;19361;51.598;7.650;2023-07-08T01:11:00;2.47;;;2.22;;
33006;SDS011;19361;51.598;7.650;2023-07-08T01:16:24;6.35;;;2.50;;
33006;SDS011;19361;51.598;7.650;2023-07-08T01:21:58;4.80;;;2.50;;
33006;SDS011;19361;51.598;7.650;2023-07-08T01:27:20;2.60;;;2.40;;
33006;SDS011;19361;51.598;7.650;2023-07-08T01:32:44;2.97;;;2.40;;
33006;SDS011;19361;51.598;7.650;2023-07-08T01:38:10;3.40;;;2.33;;
33006;SDS011;19361;51.598;7.650;2023-07-08T01:43:34;3.28;;;2.60;;
33006;SDS011;19361;51.598;7.650;2023-07-08T01:48:56;4.30;;;2.45;;
33006;SDS011;19361;51.598;7.650;2023-07-08T01:54:20;3.30;;;2.75;;
33006;SDS011;19361;51.598;7.650;2023-07-08T01:59:41;2.88;;;2.30;;
33006;SDS011;19361;51.598;7.650;2023-07-08T02:05:02;2.53;;;2.25;;
33006;SDS011;19361;51.598;7.650;2023-07-08T02:10:23;4.68;;;2.38;;
33006;SDS011;19361;51.598;7.650;2023-07-08T02:15:45;3.63;;;2.53;;
33006;SDS011;19361;51.598;7.650;2023-07-08T02:21:06;3.70;;;2.20;;
33006;SDS011;19361;51.598;7.650;2023-07-08T02:26:29;3.65;;;2.28;;
33006;SDS011;19361;51.598;7.650;2023-07-08T02:31:52;2.58;;;2.38;;
33006;SDS011;19361;51.598;7.650;2023-07-08T02:37:13;2.58;;;2.38;;
33006;SDS011;19361;51.598;7.650;2023-07-08T02:42:34;2.78;;;2.58;;
33006;SDS011;19361;51.598;7.650;2023-07-08T02:47:55;4.30;;;2.17;;
33006;SDS011;19361;51.598;7.650;2023-07-08T02:53:16;2.50;;;2.30;;
33006;SDS011;19361;51.598;7.650;2023-07-08T02:58:38;3.50;;;2.35;;
33006;SDS011;19361;51.598;7.650;2023-07-08T03:03:59;4.35;;;2.60;;
33006;SDS011;19361;51.598;7.650;2023-07-08T03:09:20;3.55;;;2.45;;
33006;SDS011;19361;51.598;7.650;2023-07-08T03:14:41;3.08;;;2.50;;
33006;SDS011;19361;51.598;7.650;2023-07-08T03:20:03;2.53;;;2.22;;
33006;SDS011;19361;51.598;7.650;2023-07-08T03:25:26;5.20;;;2.03;;
33006;SDS011;19361;51.598;7.650;2023-07-08T03:30:50;3.30;;;2.60;;
33006;SDS011;19361;51.598;7.650;2023-07-08T03:36:14;5.88;;;2.33;;
33006;SDS011;19361;51.598;7.650;2023-07-08T03:41:44;2.95;;;2.65;;
33006;SDS011;19361;51.598;7.650;2023-07-08T03:47:07;3.55;;;2.90;;
33006;SDS011;19361;51.598;7.650;2023-07-08T03:52:28;4.40;;;2.60;;
33006;SDS011;19361;51.598;7.650;2023-07-08T03:57:49;3.17;;;2.70;;
33006;SDS011;19361;51.598;7.650;2023-07-08T04:03:11;5.70;;;3.00;;
33006;SDS011;19361;51.598;7.650;2023-07-08T04:08:32;3.05;;;2.53;;
33006;SDS011;19361;51.598;7.650;2023-07-08T04:13:53;4.22;;;2.60;;
33006;SDS011;19361;51.598;7.650;2023-07-08T04:19:14;2.90;;;2.35;;
33006;SDS011;19361;51.598;7.650;2023-07-08T04:24:36;4.35;;;2.58;;
33006;SDS011;19361;51.598;7.650;2023-07-08T04:29:57;2.70;;;2.47;;
33006;SDS011;19361;51.598;7.650;2023-07-08T04:35:18;7.05;;;3.47;;
33006;SDS011;19361;51.598;7.650;2023-07-08T04:40:39;8.23;;;2.67;;
33006;SDS011;19361;51.598;7.650;2023-07-08T04:46:00;3.97;;;2.50;;
33006;SDS011;19361;51.598;7.650;2023-07-08T04:51:22;7.78;;;2.50;;
33006;SDS011;19361;51.598;7.650;2023-07-08T04:56:45;5.35;;;2.80;;
33006;SDS011;19361;51.598;7.650;2023-07-08T05:02:08;4.18;;;2.70;;
33006;SDS011;19361;51.598;7.650;2023-07-08T05:07:29;5.75;;;2.67;;
33006;SDS011;19361;51.598;7.650;2023-07-08T05:12:50;3.17;;;2.60;;
33006;SDS011;19361;51.598;7.650;2023-07-08T05:18:11;2.83;;;2.60;;
33006;SDS011;19361;51.598;7.650;2023-07-08T05:23:33;2.90;;;2.55;;
33006;SDS011;19361;51.598;7.650;2023-07-08T05:28:54;3.78;;;2.53;;
33006;SDS011;19361;51.598;7.650;2023-07-08T05:34:15;2.70;;;2.38;;
33006;SDS011;19361;51.598;7.650;2023-07-08T05:39:36;4.55;;;2.28;;
33006;SDS011;19361;51.598;7.650;2023-07-08T05:44:57;4.50;;;2.25;;
33006;SDS011;19361;51.598;7.650;2023-07-08T05:50:19;3.30;;;2.75;;
33006;SDS011;19361;51.598;7.650;2023-07-08T05:55:40;4.00;;;2.40;;
33006;SDS011;19361;51.598;7.650;2023-07-08T06:01:02;6.60;;;2.25;;
33006;SDS011;19361;51.598;7.650;2023-07-08T06:06:24;4.78;;;2.72;;
33006;SDS011;19361;51.598;7.650;2023-07-08T06:11:46;6.50;;;2.97;;
33006;SDS011;19361;51.598;7.650;2023-07-08T06:17:07;3.28;;;2.53;;
33006;SDS011;19361;51.598;7.650;2023-07-08T06:22:29;3.53;;;2.55;;
33006;SDS011;19361;51.598;7.650;2023-07-08T06:27:50;4.57;;;2.58;;
33006;SDS011;19361;51.598;7.650;2023-07-08T06:33:11;4.82;;;2.63;;
33006;SDS011;19361;51.598;7.650;2023-07-08T06:38:33;6.35;;;2.67;;
33006;SDS011;19361;51.598;7.650;2023-07-08T06:43:54;3.58;;;2.63;;
33006;SDS011;19361;51.598;7.650;2023-07-08T06:49:15;8.60;;;2.60;;
33006;SDS011;19361;51.598;7.650;2023-07-08T06:54:37;9.05;;;2.90;;
33006;SDS011;19361;51.598;7.650;2023-07-08T06:59:58;2.83;;;2.63;;
33006;SDS011;19361;51.598;7.650;2023-07-08T07:05:20;5.07;;;3.10;;
33006;SDS011;19361;51.598;7.650;2023-07-08T07:10:41;3.53;;;2.95;;
33006;SDS011;19361;51.598;7.650;2023-07-08T07:16:03;5.07;;;3.25;;
33006;SDS011;19361;51.598;7.650;2023-07-08T07:21:24;6.97;;;3.40;;
33006;SDS011;19361;51.598;7.650;2023-07-08T07:26:45;9.10;;;3.25;;
33006;SDS011;19361;51.598;7.650;2023-07-08T07:32:06;4.90;;;3.58;;
33006;SDS011;19361;51.598;7.650;2023-07-08T07:37:28;4.60;;;3.30;;
33006;SDS011;19361;51.598;7.650;2023-07-08T07:42:49;5.65;;;3.28;;
33006;SDS011;19361;51.598;7.650;2023-07-08T07:48:10;3.88;;;3.20;;
33006;SDS011;19361;51.598;7.650;2023-07-08T07:53:31;3.90;;;3.05;;
33006;SDS011;19361;51.598;7.650;2023-07-08T07:58:52;4.20;;;3.22;;
33006;SDS011;19361;51.598;7.650;2023-07-08T08:04:13;5.25;;;4.10;;
33006;SDS011;19361;51.598;7.650;2023-07-08T08:09:35;4.65;;;3.58;;
33006;SDS011;19361;51.598;7.650;2023-07-08T08:14:57;4.45;;;4.05;;
33006;SDS011;19361;51.598;7.650;2023-07-08T08:20:18;4.07;;;3.42;;
33006;SDS011;19361;51.598;7.650;2023-07-08T08:25:42;5.50;;;3.83;;
33006;SDS011;19361;51.598;7.650;2023-07-08T08:31:03;4.47;;;3.90;;
33006;SDS011;19361;51.598;7.650;2023-07-08T08:36:24;4.00;;;3.60;;
33006;SDS011;19361;51.598;7.650;2023-07-08T08:41:45;5.55;;;4.07;;
33006;SDS011;19361;51.598;7.650;2023-07-08T08:47:10;7.88;;;4.50;;
33006;SDS011;19361;51.598;7.650;2023-07-08T08:52:58;6.90;;;4.47;;
33006;SDS011;19361;51.598;7.650;2023-07-08T09:03:51;4.72;;;4.22;;
33006;SDS011;19361;51.598;7.650;2023-07-08T09:09:18;4.50;;;4.10;;
33006;SDS011;19361;51.598;7.650;2023-07-08T09:14:50;5.63;;;4.97;;
33006;SDS011;19361;51.598;7.650;2023-07-08T09:20:22;6.05;;;4.90;;
33006;SDS011;19361;51.598;7.650;2023-07-08T09:25:58;5.23;;;4.70;;
33006;SDS011;19361;51.598;7.650;2023-07-08T09:36:53;8.70;;;4.93;;
33006;SDS011;19361;51.598;7.650;2023-07-08T09:42:14;9.75;;;5.05;;
33006;SDS011;19361;51.598;7.650;2023-07-08T09:47:36;5.78;;;5.20;;
33006;SDS011;19361;51.598;7.650;2023-07-08T09:53:00;6.20;;;5.60;;
33006;SDS011;19361;51.598;7.650;2023-07-08T09:58:25;7.82;;;5.68;;
33006;SDS011;19361;51.598;7.650;2023-07-08T10:04:03;6.50;;;5.57;;
33006;SDS011;19361;51.598;7.650;2023-07-08T10:09:24;6.78;;;6.07;;
33006;SDS011;19361;51.598;7.650;2023-07-08T10:14:47;7.95;;;5.80;;
33006;SDS011;19361;51.598;7.650;2023-07-08T10:20:18;7.15;;;5.53;;
33006;SDS011;19361;51.598;7.650;2023-07-08T10:25:44;9.02;;;6.53;;
33006;SDS011;19361;51.598;7.650;2023-07-08T10:37:36;10.13;;;6.38;;
33006;SDS011;19361;51.598;7.650;2023-07-08T11:00:44;9.02;;;5.68;;
33006;SDS011;19361;51.598;7.650;2023-07-08T11:06:27;5.07;;;4.68;;
33006;SDS011;19361;51.598;7.650;2023-07-08T11:12:35;6.57;;;5.70;;
33006;SDS011;19361;51.598;7.650;2023-07-08T11:18:13;6.55;;;4.80;;
33006;SDS011;19361;51.598;7.650;2023-07-08T11:23:52;6.95;;;4.20;;
33006;SDS011;19361;51.598;7.650;2023-07-08T11:29:19;5.22;;;4.82;;
33006;SDS011;19361;51.598;7.650;2023-07-08T11:35:03;5.65;;;4.63;;
33006;SDS011;19361;51.598;7.650;2023-07-08T11:40:28;8.25;;;5.00;;
33006;SDS011;19361;51.598;7.650;2023-07-08T11:45:49;6.50;;;5.07;;
33006;SDS011;19361;51.598;7.650;2023-07-08T11:51:15;7.97;;;5.45;;
33006;SDS011;19361;51.598;7.650;2023-07-08T11:57:04;6.28;;;5.68;;
33006;SDS011;19361;51.598;7.650;2023-07-08T12:02:29;6.20;;;5.60;;
33006;SDS011;19361;51.598;7.650;2023-07-08T12:08:14;6.68;;;5.47;;
33006;SDS011;19361;51.598;7.650;2023-07-08T12:13:38;11.90;;;5.35;;
33006;SDS011;19361;51.598;7.650;2023-07-08T12:19:00;6.10;;;5.50;;
33006;SDS011;19361;51.598;7.650;2023-07-08T12:24:24;6.70;;;5.93;;
33006;SDS011;19361;51.598;7.650;2023-07-08T12:29:47;6.45;;;5.10;;
33006;SDS011;19361;51.598;7.650;2023-07-08T12:35:22;7.68;;;4.88;;
33006;SDS011;19361;51.598;7.650;2023-07-08T12:40:47;7.65;;;5.07;;
33006;SDS011;19361;51.598;7.650;2023-07-08T12:46:11;4.60;;;4.20;;
33006;SDS011;19361;51.598;7.650;2023-07-08T12:51:34;6.28;;;5.43;;
33006;SDS011;19361;51.598;7.650;2023-07-08T12:56:55;6.07;;;5.28;;
33006;SDS011;19361;51.598;7.650;2023-07-08T13:02:17;5.13;;;4.50;;
33006;SDS011;19361;51.598;7.650;2023-07-08T13:07:41;8.82;;;4.53;;
33006;SDS011;19361;51.598;7.650;2023-07-08T13:13:04;5.75;;;4.95;;
33006;SDS011;19361;51.598;7.650;2023-07-08T13:18:33;6.40;;;4.55;;
33006;SDS011;19361;51.598;7.650;2023-07-08T13:23:57;6.40;;;4.82;;
33006;SDS011;19361;51.598;7.650;2023-07-08T13:29:18;4.68;;;4.28;;
33006;SDS011;19361;51.598;7.650;2023-07-08T13:34:41;4.72;;;4.32;;
33006;SDS011;19361;51.598;7.650;2023-07-08T13:40:03;6.55;;;4.20;;
33006;SDS011;19361;51.598;7.650;2023-07-08T13:45:30;5.50;;;4.83;;
33006;SDS011;19361;51.598;7.650;2023-07-08T13:50:55;5.63;;;4.22;;
33006;SDS011;19361;51.598;7.650;2023-07-08T13:56:32;7.93;;;4.80;;
33006;SDS011;19361;51.598;7.650;2023-07-08T14:01:56;4.53;;;4.13;;
33006;SDS011;19361;51.598;7.650;2023-07-08T14:07:19;5.60;;;4.53;;
33006;SDS011;19361;51.598;7.650;2023-07-08T14:12:46;7.50;;;5.85;;
33006;SDS011;19361;51.598;7.650;2023-07-08T14:18:08;5.63;;;5.03;;
33006;SDS011;19361;51.598;7.650;2023-07-08T14:23:31;6.38;;;4.82;;
33006;SDS011;19361;51.598;7.650;2023-07-08T14:28:52;7.07;;;6.38;;
33006;SDS011;19361;51.598;7.650;2023-07-08T14:34:48;9.60;;;6.07;;
33006;SDS011;19361;51.598;7.650;2023-07-08T14:40:10;8.15;;;7.07;;
33006;SDS011;19361;51.598;7.650;2023-07-08T14:45:54;8.32;;;6.75;;
33006;SDS011;19361;51.598;7.650;2023-07-08T14:51:18;6.20;;;5.60;;
33006;SDS011;19361;51.598;7.650;2023-07-08T14:56:39;7.43;;;6.03;;
33006;SDS011;19361;51.598;7.650;2023-07-08T15:02:02;7.00;;;6.03;;
33006;SDS011;19361;51.598;7.650;2023-07-08T15:13:00;6.53;;;5.82;;
33006;SDS011;19361;51.598;7.650;2023-07-08T15:18:22;7.30;;;6.15;;
33006;SDS011;19361;51.598;7.650;2023-07-08T15:23:43;8.30;;;6.80;;
33006;SDS011;19361;51.598;7.650;2023-07-08T15:29:04;8.82;;;6.57;;
33006;SDS011;19361;51.598;7.650;2023-07-08T15:34:25;8.05;;;5.90;;
33006;SDS011;19361;51.598;7.650;2023-07-08T15:39:46;6.13;;;5.53;;
33006;SDS011;19361;51.598;7.650;2023-07-08T15:45:14;7.82;;;6.00;;
33006;SDS011;19361;51.598;7.650;2023-07-08T15:50:41;9.00;;;6.38;;
33006;SDS011;19361;51.598;7.650;2023-07-08T15:56:03;8.85;;;6.40;;
33006;SDS011;19361;51.598;7.650;2023-07-08T16:01:24;9.38;;;5.88;;
33006;SDS011;19361;51.598;7.650;2023-07-08T16:06:45;6.40;;;5.80;;
33006;SDS011;19361;51.598;7.650;2023-07-08T16:12:07;7.45;;;6.00;;
33006;SDS011;19361;51.598;7.650;2023-07-08T16:17:33;7.33;;;5.47;;
33006;SDS011;19361;51.598;7.650;2023-07-08T16:22:57;7.07;;;6.20;;
33006;SDS011;19361;51.598;7.650;2023-07-08T16:28:26;7.07;;;5.78;;
33006;SDS011;19361;51.598;7.650;2023-07-08T16:34:03;7.50;;;6.20;;
33006;SDS011;19361;51.598;7.650;2023-07-08T16:39:24;6.20;;;5.60;;
33006;SDS011;19361;51.598;7.650;2023-07-08T16:44:47;6.65;;;5.95;;
33006;SDS011;19361;51.598;7.650;2023-07-08T16:50:08;6.72;;;5.90;;
33006;SDS011;19361;51.598;7.650;2023-07-08T16:55:30;6.80;;;5.60;;
33006;SDS011;19361;51.598;7.650;2023-07-08T17:00:52;6.70;;;6.10;;
33006;SDS011;19361;51.598;7.650;2023-07-08T17:06:13;8.65;;;5.32;;
33006;SDS011;19361;51.598;7.650;2023-07-08T17:11:34;7.15;;;6.38;;
33006;SDS011;19361;51.598;7.650;2023-07-08T17:16:55;8.55;;;5.25;;
33006;SDS011;19361;51.598;7.650;2023-07-08T17:22:16;6.70;;;5.80;;
33006;SDS011;19361;51.598;7.650;2023-07-08T17:27:37;11.25;;;5.60;;
33006;SDS011;19361;51.598;7.650;2023-07-08T17:32:58;7.78;;;6.15;;
33006;SDS011;19361;51.598;7.650;2023-07-08T17:38:42;7.40;;;5.13;;
33006;SDS011;19361;51.598;7.650;2023-07-08T17:44:06;8.38;;;5.60;;
33006;SDS011;19361;51.598;7.650;2023-07-08T17:49:28;9.45;;;4.97;;
33006;SDS011;19361;51.598;7.650;2023-07-08T17:54:49;9.25;;;5.63;;
33006;SDS011;19361;51.598;7.650;2023-07-08T18:05:41;11.43;;;5.20;;
33006;SDS011;19361;51.598;7.650;2023-07-08T18:11:02;7.60;;;5.38;;
33006;SDS011;19361;51.598;7.650;2023-07-08T18:16:23;6.85;;;5.07;;
33006;SDS011;19361;51.598;7.650;2023-07-08T18:21:45;6.13;;;4.78;;
33006;SDS011;19361;51.598;7.650;2023-07-08T18:27:08;7.20;;;6.53;;
33006;SDS011;19361;51.598;7.650;2023-07-08T18:32:33;10.10;;;5.97;;
33006;SDS011;19361;51.598;7.650;2023-07-08T18:37:55;8.93;;;5.40;;
33006;SDS011;19361;51.598;7.650;2023-07-08T18:48:40;9.38;;;6.10;;
33006;SDS011;19361;51.598;7.650;2023-07-08T18:54:04;9.40;;;6.10;;
33006;SDS011;19361;51.598;7.650;2023-07-08T18:59:32;8.82;;;6.45;;
33006;SDS011;19361;51.598;7.650;2023-07-08T19:04:53;10.73;;;6.80;;
33006;SDS011;19361;51.598;7.650;2023-07-08T19:10:14;10.25;;;6.75;;
33006;SDS011;19361;51.598;7.650;2023-07-08T19:15:36;12.70;;;6.90;;
33006;SDS011;19361;51.598;7.650;2023-07-08T19:20:57;8.20;;;6.25;;
33006;SDS011;19361;51.598;7.650;2023-07-08T19:26:20;7.32;;;5.75;;
33006;SDS011;19361;51.598;7.650;2023-07-08T19:31:45;11.35;;;5.90;;
33006;SDS011;19361;51.598;7.650;2023-07-08T19:37:11;7.15;;;5.53;;
33006;SDS011;19361;51.598;7.650;2023-07-08T19:42:36;6.78;;;6.03;;
33006;SDS011;19361;51.598;7.650;2023-07-08T19:47:57;6.13;;;5.53;;
33006;SDS011;19361;51.598;7.650;2023-07-08T19:53:18;7.55;;;5.70;;
33006;SDS011;19361;51.598;7.650;2023-07-08T19:58:39;6.05;;;5.05;;
33006;SDS011;19361;51.598;7.650;2023-07-08T20:04:00;9.98;;;5.75;;
33006;SDS011;19361;51.598;7.650;2023-07-08T20:09:23;6.45;;;5.45;;
33006;SDS011;19361;51.598;7.650;2023-07-08T20:14:44;9.35;;;5.82;;
33006;SDS011;19361;51.598;7.650;2023-07-08T20:20:16;7.35;;;5.35;;
33006;SDS011;19361;51.598;7.650;2023-07-08T20:31:05;8.60;;;6.95;;
33006;SDS011;19361;51.598;7.650;2023-07-08T20:36:26;11.07;;;6.70;;
33006;SDS011;19361;51.598;7.650;2023-07-08T20:41:48;12.60;;;5.95;;
33006;SDS011;19361;51.598;7.650;2023-07-08T20:47:13;7.75;;;5.82;;
33006;SDS011;19361;51.598;7.650;2023-07-08T20:52:35;7.10;;;5.10;;
33006;SDS011;19361;51.598;7.650;2023-07-08T20:57:57;9.35;;;5.97;;
33006;SDS011;19361;51.598;7.650;2023-07-08T21:03:19;6.55;;;5.60;;
33006;SDS011;19361;51.598;7.650;2023-07-08T21:08:42;8.88;;;5.63;;
33006;SDS011;19361;51.598;7.650;2023-07-08T21:14:03;8.63;;;5.43;;
33006;SDS011;19361;51.598;7.650;2023-07-08T21:19:24;14.68;;;6.88;;
33006;SDS011;19361;51.598;7.650;2023-07-08T21:24:45;8.27;;;6.32;;
33006;SDS011;19361;51.598;7.650;2023-07-08T21:35:35;7.75;;;6.18;;
33006;SDS011;19361;51.598;7.650;2023-07-08T21:46:08;14.43;;;6.13;;
33006;SDS011;19361;51.598;7.650;2023-07-08T21:51:30;11.27;;;6.07;;
33006;SDS011;19361;51.598;7.650;2023-07-08T21:56:52;8.65;;;6.60;;
33006;SDS011;19361;51.598;7.650;2023-07-08T22:02:13;8.45;;;6.35;;
33006;SDS011;19361;51.598;7.650;2023-07-08T22:07:34;10.73;;;7.40;;
33006;SDS011;19361;51.598;7.650;2023-07-08T22:12:55;8.88;;;6.93;;
33006;SDS011;19361;51.598;7.650;2023-07-08T22:18:17;8.85;;;6.32;;
33006;SDS011;19361;51.598;7.650;2023-07-08T22:23:42;9.18;;;6.00;;
33006;SDS011;19361;51.598;7.650;2023-07-08T22:29:03;8.68;;;6.20;;
33006;SDS011;19361;51.598;7.650;2023-07-08T22:34:24;8.90;;;6.07;;
33006;SDS011;19361;51.598;7.650;2023-07-08T22:39:45;11.23;;;6.53;;
33006;SDS011;19361;51.598;7.650;2023-07-08T22:45:13;7.90;;;6.18;;
33006;SDS011;19361;51.598;7.650;2023-07-08T22:50:37;7.00;;;6.22;;
33006;SDS011;19361;51.598;7.650;2023-07-08T22:56:04;11.17;;;6.13;;
33006;SDS011;19361;51.598;7.650;2023-07-08T23:01:25;8.55;;;6.35;;
33006;SDS011;19361;51.598;7.650;2023-07-08T23:06:46;8.57;;;6.10;;
33006;SDS011;19361;51.598;7.650;2023-07-08T23:12:08;10.15;;;5.88;;
33006;SDS011;19361;51.598;7.650;2023-07-08T23:17:30;9.45;;;5.97;;
33006;SDS011;19361;51.598;7.650;2023-07-08T23:22:51;9.93;;;5.85;;
33006;SDS011;19361;51.598;7.650;2023-07-08T23:28:12;10.52;;;6.28;;
33006;SDS011;19361;51.598;7.650;2023-07-08T23:33:34;7.78;;;6.28;;
33006;SDS011;19361;51.598;7.650;2023-07-08T23:38:55;8.57;;;5.32;;
33006;SDS011;19361;51.598;7.650;2023-07-08T23:44:17;6.13;;;5.28;;
33006;SDS011;19361;51.598;7.650;2023-07-08T23:49:40;6.05;;;5.43;;
33006;SDS011;19361;51.598;7.650;2023-07-08T23:55:01;7.07;;;5.95;;
